Umar1 — 9HA2498 — position and weather

sailwx.info

Track history (hours):
 
Tides and Currents Weather Stations Pressure Air Temp Water Temp Dewpoint Dewpoint Depression Visibility Wind Speed Wind Dir Waves Ship Positions

Umar1

Last reported at 2014-Aug-14 19:07 UTC. Time now 2014-Aug-20 06:50 UTC.
Position N 43°06' E 009°42'.

Length 100 m; draft 6.5 m.

Type: Tanker. MMSI: 248751000.

Date/timePositionNaut miles runAvg speedWind from/ knotsBaromVisibWave heightAir tempDewpointWater temp
2014-Aug-14 19:07N 43°06' E 009°42'4 6.3
2014-Aug-14 18:32N 43°09' E 009°45'6 6.3
2014-Aug-14 17:33N 43°11' E 009°53'6 6.0
2014-Aug-14 16:34N 43°15' E 009°60'6 5.9
2014-Aug-14 15:33N 43°20' E 010°03'6 6.2
2014-Aug-14 14:33N 43°26' E 010°07'6 6.3
2014-Aug-14 13:33N 43°31' E 010°12'5 5.0
2014-Aug-14 12:32N 43°34' E 010°18'0 0.0
2014-Aug-14 11:32N 43°34' E 010°18'0 0.0
2014-Aug-14 10:32N 43°34' E 010°18'0 0.0
2014-Aug-14 09:29N 43°34' E 010°18'0 0.0
2014-Aug-14 08:32N 43°34' E 010°18'0 0.0
2014-Aug-14 07:32N 43°34' E 010°18'0 0.0
2014-Aug-14 06:26N 43°34' E 010°18'0 0.0
2014-Aug-14 05:32N 43°34' E 010°18'0 0.0
2014-Aug-14 04:32N 43°34' E 010°18'0 0.0
2014-Aug-14 03:32N 43°34' E 010°18'0 0.0
2014-Aug-14 02:32N 43°34' E 010°18'0 0.0
2014-Aug-14 01:32N 43°34' E 010°18'0 0.0
2014-Aug-14 00:32N 43°34' E 010°18'0 0.0
2014-Aug-13 23:32N 43°34' E 010°18'0 0.0
2014-Aug-13 22:32N 43°34' E 010°18'0 0.0
2014-Aug-13 21:32N 43°34' E 010°18'0 0.0
2014-Aug-13 20:32N 43°34' E 010°18'0 0.0
2014-Aug-13 19:32N 43°34' E 010°18'0 0.0
2014-Aug-13 18:32N 43°34' E 010°18'0 0.0
2014-Aug-13 17:32N 43°34' E 010°18'0 0.0
2014-Aug-13 16:32N 43°34' E 010°18'0 0.0
2014-Aug-13 15:32N 43°34' E 010°18'0 0.0
2014-Aug-13 14:32N 43°34' E 010°18'0 0.0
2014-Aug-13 13:32N 43°34' E 010°18'0 0.0
2014-Aug-13 12:32N 43°34' E 010°18'0 0.0
2014-Aug-13 11:32N 43°34' E 010°18'0 0.0
2014-Aug-13 10:32N 43°34' E 010°18'0 0.0
2014-Aug-13 09:32N 43°34' E 010°18'0 0.0
2014-Aug-13 08:32N 43°34' E 010°18'0 0.0
2014-Aug-13 07:32N 43°34' E 010°18'0 0.0
2014-Aug-13 06:32N 43°34' E 010°18'0 0.0
2014-Aug-13 05:32N 43°34' E 010°18'0 0.0
2014-Aug-13 04:32N 43°34' E 010°18'0 0.0
2014-Aug-13 03:32N 43°34' E 010°18'0 0.0
2014-Aug-13 02:26N 43°34' E 010°18'0 0.0
2014-Aug-13 01:32N 43°34' E 010°18'0 0.0
2014-Aug-13 00:32N 43°34' E 010°18'0 0.0
2014-Aug-12 23:32N 43°34' E 010°18'0 0.0
2014-Aug-12 22:32N 43°34' E 010°18'0 0.0
2014-Aug-12 21:32N 43°34' E 010°18'0 0.0
2014-Aug-12 20:32N 43°34' E 010°18'3 2.8
2014-Aug-12 19:33N 43°31' E 010°16'1 1.4
2014-Aug-12 18:31N 43°30' E 010°17'0 0.0
2014-Aug-12 17:31N 43°30' E 010°17'0 0.0
2014-Aug-12 16:31N 43°30' E 010°17'0 0.0
2014-Aug-12 15:31N 43°30' E 010°17'0 0.0
2014-Aug-12 14:31N 43°30' E 010°17'0 0.0
2014-Aug-12 13:31N 43°30' E 010°17'0 0.0
2014-Aug-12 12:31N 43°30' E 010°17'0 0.0
2014-Aug-12 11:28N 43°30' E 010°17'0 0.0
2014-Aug-12 10:31N 43°30' E 010°17'0 0.0
2014-Aug-12 09:31N 43°30' E 010°17'0 0.0
2014-Aug-12 08:31N 43°30' E 010°17'0 0.0
2014-Aug-11 16:31N 43°30' E 010°17'0 0.0
2014-Aug-11 15:31N 43°30' E 010°17'0 0.0
2014-Aug-11 14:31N 43°30' E 010°17'0 0.0
2014-Aug-11 13:31N 43°30' E 010°17'0 0.0
2014-Aug-11 12:31N 43°30' E 010°17'0 0.0
2014-Aug-11 11:31N 43°30' E 010°17'0 0.0
2014-Aug-11 10:31N 43°30' E 010°17'0 0.0
2014-Aug-11 09:31N 43°30' E 010°17'0 0.0
2014-Aug-11 08:31N 43°30' E 010°17'62 6.1
2014-Aug-10 22:26N 43°39' E 008°52'8 9.2
2014-Aug-10 21:33N 43°37' E 008°42'9 9.3
2014-Aug-10 20:33N 43°34' E 008°29'9 8.9
2014-Aug-10 19:33N 43°32' E 008°17'9 8.9
2014-Aug-10 18:33N 43°30' E 008°05'9 8.8
2014-Aug-10 17:33N 43°28' E 007°53'9 8.9
2014-Aug-10 16:33N 43°26' E 007°42'9 9.4
2014-Aug-10 15:33N 43°22' E 007°30'1010.1
2014-Aug-10 14:33N 43°16' E 007°18'10 9.8
2014-Aug-10 13:33N 43°12' E 007°06'9 9.4
2014-Aug-10 12:33N 43°06' E 006°56'10 9.7
2014-Aug-10 11:33N 43°01' E 006°44'10 9.7
2014-Aug-10 10:33N 42°57' E 006°33'9 9.0
2014-Aug-10 09:33N 42°55' E 006°21'9 9.3
2014-Aug-10 08:33N 42°55' E 006°08'9 9.1
2014-Aug-10 07:33N 42°56' E 005°56'9 9.5
2014-Aug-10 06:33N 42°60' E 005°44'9 9.4
2014-Aug-10 05:33N 43°03' E 005°32'10 9.4
2014-Aug-10 04:32N 43°07' E 005°20'10 9.8
2014-Aug-10 03:33N 43°10' E 005°07'9 8.9
2014-Aug-10 02:33N 43°17' E 004°60'9 8.8
2014-Aug-10 01:34N 43°24' E 004°53'1 1.2
2014-Aug-10 00:33N 43°26' E 004°54'0 0.0
2014-Aug-09 23:33N 43°26' E 004°54'0 0.0
2014-Aug-09 22:24N 43°26' E 004°54'0 0.0
2014-Aug-09 21:33N 43°26' E 004°54'0 0.0
2014-Aug-09 20:33N 43°26' E 004°54'0 0.0
2014-Aug-09 19:33N 43°26' E 004°54'0 0.0
2014-Aug-09 18:33N 43°26' E 004°54'0 0.0
2014-Aug-09 17:33N 43°26' E 004°54'0 0.0
2014-Aug-09 16:33N 43°26' E 004°54'0 0.0
2014-Aug-09 15:33N 43°26' E 004°54'0 0.0
2014-Aug-09 14:33N 43°26' E 004°54'2 1.5
2014-Aug-09 13:33N 43°25' E 004°56'0 0.1
2014-Aug-09 12:33N 43°25' E 004°56'0 0.0
2014-Aug-09 11:33N 43°25' E 004°56'0 0.0
2014-Aug-09 10:30N 43°25' E 004°56'0 0.1
2014-Aug-09 09:33N 43°25' E 004°55'0 0.0
2014-Aug-09 08:33N 43°25' E 004°55'0 0.0
2014-Aug-09 07:33N 43°25' E 004°55'0 0.3
2014-Aug-09 06:33N 43°24' E 004°56'3 2.7
2014-Aug-09 05:33N 43°24' E 004°59'0 0.0
2014-Aug-09 04:33N 43°24' E 004°59'0 0.0
2014-Aug-09 03:33N 43°24' E 004°59'0 0.0
2014-Aug-09 02:33N 43°24' E 004°59'0 0.0
2014-Aug-09 01:33N 43°24' E 004°59'0 0.0
2014-Aug-09 00:33N 43°24' E 004°59'0 0.0
2014-Aug-08 23:33N 43°24' E 004°59'0 0.0
2014-Aug-08 22:33N 43°24' E 004°59'0 0.0
2014-Aug-08 21:33N 43°24' E 004°59'0 0.0
2014-Aug-08 20:33N 43°24' E 004°59'0 0.0
2014-Aug-08 19:33N 43°24' E 004°59'0 0.0
2014-Aug-08 18:33N 43°24' E 004°59'0 0.0
2014-Aug-08 17:33N 43°24' E 004°59'0 0.0
2014-Aug-08 16:33N 43°24' E 004°59'0 0.0
2014-Aug-08 15:33N 43°24' E 004°59'0 0.0
2014-Aug-08 14:33N 43°24' E 004°59'0 0.0
2014-Aug-08 13:33N 43°24' E 004°59'0 0.0
2014-Aug-08 12:33N 43°24' E 004°59'0 0.1
2014-Aug-08 11:34N 43°24' E 004°59'8 8.1
2014-Aug-08 10:34N 43°16' E 005°01'10 9.6
2014-Aug-08 09:34N 43°07' E 004°57'1111.1
2014-Aug-08 08:33N 42°58' E 004°47'1211.5
2014-Aug-08 07:30N 42°49' E 004°35'1210.2
2014-Aug-08 06:20N 42°41' E 004°24'810.0
2014-Aug-08 05:32N 42°35' E 004°17'1010.6
2014-Aug-08 04:33N 42°27' E 004°08'1010.4
2014-Aug-08 03:33N 42°20' E 003°58'1110.6
2014-Aug-08 02:32N 42°12' E 003°48'1010.6
2014-Aug-08 01:34N 42°04' E 003°38'1110.9
2014-Aug-08 00:31N 41°56' E 003°27'1111.1
2014-Aug-07 23:33N 41°49' E 003°16'1611.4
2014-Aug-07 22:09N 41°40' E 002°59'3011.3
2014-Aug-07 19:30N 41°22' E 002°27'1111.3
2014-Aug-07 18:33N 41°17' E 002°14'5 0.1
2014-Aug-05 14:33N 41°20' E 002°09'7 6.8
2014-Aug-05 13:31N 41°13' E 002°08'1211.5
2014-Aug-05 12:31N 41°05' E 001°58'10 9.8
2014-Aug-05 11:32N 40°57' E 001°50'1010.4
2014-Aug-05 10:33N 40°50' E 001°41'1010.5
2014-Aug-05 09:33N 40°41' E 001°32'1010.1
2014-Aug-05 08:33N 40°35' E 001°22'1110.2
2014-Aug-05 07:31N 40°29' E 001°10'1010.4
2014-Aug-05 06:32N 40°24' E 000°59'  
Track history (hours):
 
Tides and Currents Weather Stations Pressure Air Temp Water Temp Dewpoint Dewpoint Depression Visibility Wind Speed Wind Dir Waves Ship Positions

Umar1

Last reported at 2014-Aug-14 19:07 UTC. Time now 2014-Aug-20 06:50 UTC.
Position N 43°06' E 009°42'.

Length 100 m; draft 6.5 m.

Type: Tanker. MMSI: 248751000.

Date/timePositionNaut miles runAvg speedWind from/ knotsBaromVisibWave heightAir tempDewpointWater temp
2014-Aug-14 19:07N 43°06' E 009°42'4 6.3
2014-Aug-14 18:32N 43°09' E 009°45'6 6.3
2014-Aug-14 17:33N 43°11' E 009°53'6 6.0
2014-Aug-14 16:34N 43°15' E 009°60'6 5.9
2014-Aug-14 15:33N 43°20' E 010°03'6 6.2
2014-Aug-14 14:33N 43°26' E 010°07'6 6.3
2014-Aug-14 13:33N 43°31' E 010°12'5 5.0
2014-Aug-14 12:32N 43°34' E 010°18'0 0.0
2014-Aug-14 11:32N 43°34' E 010°18'0 0.0
2014-Aug-14 10:32N 43°34' E 010°18'0 0.0
2014-Aug-14 09:29N 43°34' E 010°18'0 0.0
2014-Aug-14 08:32N 43°34' E 010°18'0 0.0
2014-Aug-14 07:32N 43°34' E 010°18'0 0.0
2014-Aug-14 06:26N 43°34' E 010°18'0 0.0
2014-Aug-14 05:32N 43°34' E 010°18'0 0.0
2014-Aug-14 04:32N 43°34' E 010°18'0 0.0
2014-Aug-14 03:32N 43°34' E 010°18'0 0.0
2014-Aug-14 02:32N 43°34' E 010°18'0 0.0
2014-Aug-14 01:32N 43°34' E 010°18'0 0.0
2014-Aug-14 00:32N 43°34' E 010°18'0 0.0
2014-Aug-13 23:32N 43°34' E 010°18'0 0.0
2014-Aug-13 22:32N 43°34' E 010°18'0 0.0
2014-Aug-13 21:32N 43°34' E 010°18'0 0.0
2014-Aug-13 20:32N 43°34' E 010°18'0 0.0
2014-Aug-13 19:32N 43°34' E 010°18'0 0.0
2014-Aug-13 18:32N 43°34' E 010°18'0 0.0
2014-Aug-13 17:32N 43°34' E 010°18'0 0.0
2014-Aug-13 16:32N 43°34' E 010°18'0 0.0
2014-Aug-13 15:32N 43°34' E 010°18'0 0.0
2014-Aug-13 14:32N 43°34' E 010°18'0 0.0
2014-Aug-13 13:32N 43°34' E 010°18'0 0.0
2014-Aug-13 12:32N 43°34' E 010°18'0 0.0
2014-Aug-13 11:32N 43°34' E 010°18'0 0.0
2014-Aug-13 10:32N 43°34' E 010°18'0 0.0
2014-Aug-13 09:32N 43°34' E 010°18'0 0.0
2014-Aug-13 08:32N 43°34' E 010°18'0 0.0
2014-Aug-13 07:32N 43°34' E 010°18'0 0.0
2014-Aug-13 06:32N 43°34' E 010°18'0 0.0
2014-Aug-13 05:32N 43°34' E 010°18'0 0.0
2014-Aug-13 04:32N 43°34' E 010°18'0 0.0
2014-Aug-13 03:32N 43°34' E 010°18'0 0.0
2014-Aug-13 02:26N 43°34' E 010°18'0 0.0
2014-Aug-13 01:32N 43°34' E 010°18'0 0.0
2014-Aug-13 00:32N 43°34' E 010°18'0 0.0
2014-Aug-12 23:32N 43°34' E 010°18'0 0.0
2014-Aug-12 22:32N 43°34' E 010°18'0 0.0
2014-Aug-12 21:32N 43°34' E 010°18'0 0.0
2014-Aug-12 20:32N 43°34' E 010°18'3 2.8
2014-Aug-12 19:33N 43°31' E 010°16'1 1.4
2014-Aug-12 18:31N 43°30' E 010°17'0 0.0
2014-Aug-12 17:31N 43°30' E 010°17'0 0.0
2014-Aug-12 16:31N 43°30' E 010°17'0 0.0
2014-Aug-12 15:31N 43°30' E 010°17'0 0.0
2014-Aug-12 14:31N 43°30' E 010°17'0 0.0
2014-Aug-12 13:31N 43°30' E 010°17'0 0.0
2014-Aug-12 12:31N 43°30' E 010°17'0 0.0
2014-Aug-12 11:28N 43°30' E 010°17'0 0.0
2014-Aug-12 10:31N 43°30' E 010°17'0 0.0
2014-Aug-12 09:31N 43°30' E 010°17'0 0.0
2014-Aug-12 08:31N 43°30' E 010°17'0 0.0
2014-Aug-11 16:31N 43°30' E 010°17'0 0.0
2014-Aug-11 15:31N 43°30' E 010°17'0 0.0
2014-Aug-11 14:31N 43°30' E 010°17'0 0.0
2014-Aug-11 13:31N 43°30' E 010°17'0 0.0
2014-Aug-11 12:31N 43°30' E 010°17'0 0.0
2014-Aug-11 11:31N 43°30' E 010°17'0 0.0
2014-Aug-11 10:31N 43°30' E 010°17'0 0.0
2014-Aug-11 09:31N 43°30' E 010°17'0 0.0
2014-Aug-11 08:31N 43°30' E 010°17'62 6.1
2014-Aug-10 22:26N 43°39' E 008°52'8 9.2
2014-Aug-10 21:33N 43°37' E 008°42'9 9.3
2014-Aug-10 20:33N 43°34' E 008°29'9 8.9
2014-Aug-10 19:33N 43°32' E 008°17'9 8.9
2014-Aug-10 18:33N 43°30' E 008°05'9 8.8
2014-Aug-10 17:33N 43°28' E 007°53'9 8.9
2014-Aug-10 16:33N 43°26' E 007°42'9 9.4
2014-Aug-10 15:33N 43°22' E 007°30'1010.1
2014-Aug-10 14:33N 43°16' E 007°18'10 9.8
2014-Aug-10 13:33N 43°12' E 007°06'9 9.4
2014-Aug-10 12:33N 43°06' E 006°56'10 9.7
2014-Aug-10 11:33N 43°01' E 006°44'10 9.7
2014-Aug-10 10:33N 42°57' E 006°33'9 9.0
2014-Aug-10 09:33N 42°55' E 006°21'9 9.3
2014-Aug-10 08:33N 42°55' E 006°08'9 9.1
2014-Aug-10 07:33N 42°56' E 005°56'9 9.5
2014-Aug-10 06:33N 42°60' E 005°44'9 9.4
2014-Aug-10 05:33N 43°03' E 005°32'10 9.4
2014-Aug-10 04:32N 43°07' E 005°20'10 9.8
2014-Aug-10 03:33N 43°10' E 005°07'9 8.9
2014-Aug-10 02:33N 43°17' E 004°60'9 8.8
2014-Aug-10 01:34N 43°24' E 004°53'1 1.2
2014-Aug-10 00:33N 43°26' E 004°54'0 0.0
2014-Aug-09 23:33N 43°26' E 004°54'0 0.0
2014-Aug-09 22:24N 43°26' E 004°54'0 0.0
2014-Aug-09 21:33N 43°26' E 004°54'0 0.0
2014-Aug-09 20:33N 43°26' E 004°54'0 0.0
2014-Aug-09 19:33N 43°26' E 004°54'0 0.0
2014-Aug-09 18:33N 43°26' E 004°54'0 0.0
2014-Aug-09 17:33N 43°26' E 004°54'0 0.0
2014-Aug-09 16:33N 43°26' E 004°54'0 0.0
2014-Aug-09 15:33N 43°26' E 004°54'0 0.0
2014-Aug-09 14:33N 43°26' E 004°54'2 1.5
2014-Aug-09 13:33N 43°25' E 004°56'0 0.1
2014-Aug-09 12:33N 43°25' E 004°56'0 0.0
2014-Aug-09 11:33N 43°25' E 004°56'0 0.0
2014-Aug-09 10:30N 43°25' E 004°56'0 0.1
2014-Aug-09 09:33N 43°25' E 004°55'0 0.0
2014-Aug-09 08:33N 43°25' E 004°55'0 0.0
2014-Aug-09 07:33N 43°25' E 004°55'0 0.3
2014-Aug-09 06:33N 43°24' E 004°56'3 2.7
2014-Aug-09 05:33N 43°24' E 004°59'0 0.0
2014-Aug-09 04:33N 43°24' E 004°59'0 0.0
2014-Aug-09 03:33N 43°24' E 004°59'0 0.0
2014-Aug-09 02:33N 43°24' E 004°59'0 0.0
2014-Aug-09 01:33N 43°24' E 004°59'0 0.0
2014-Aug-09 00:33N 43°24' E 004°59'0 0.0
2014-Aug-08 23:33N 43°24' E 004°59'0 0.0
2014-Aug-08 22:33N 43°24' E 004°59'0 0.0
2014-Aug-08 21:33N 43°24' E 004°59'0 0.0
2014-Aug-08 20:33N 43°24' E 004°59'0 0.0
2014-Aug-08 19:33N 43°24' E 004°59'0 0.0
2014-Aug-08 18:33N 43°24' E 004°59'0 0.0
2014-Aug-08 17:33N 43°24' E 004°59'0 0.0
2014-Aug-08 16:33N 43°24' E 004°59'0 0.0
2014-Aug-08 15:33N 43°24' E 004°59'0 0.0
2014-Aug-08 14:33N 43°24' E 004°59'0 0.0
2014-Aug-08 13:33N 43°24' E 004°59'0 0.0
2014-Aug-08 12:33N 43°24' E 004°59'0 0.1
2014-Aug-08 11:34N 43°24' E 004°59'8 8.1
2014-Aug-08 10:34N 43°16' E 005°01'10 9.6
2014-Aug-08 09:34N 43°07' E 004°57'1111.1
2014-Aug-08 08:33N 42°58' E 004°47'1211.5
2014-Aug-08 07:30N 42°49' E 004°35'1210.2
2014-Aug-08 06:20N 42°41' E 004°24'810.0
2014-Aug-08 05:32N 42°35' E 004°17'1010.6
2014-Aug-08 04:33N 42°27' E 004°08'1010.4
2014-Aug-08 03:33N 42°20' E 003°58'1110.6
2014-Aug-08 02:32N 42°12' E 003°48'1010.6
2014-Aug-08 01:34N 42°04' E 003°38'1110.9
2014-Aug-08 00:31N 41°56' E 003°27'1111.1
2014-Aug-07 23:33N 41°49' E 003°16'1611.4
2014-Aug-07 22:09N 41°40' E 002°59'3011.3
2014-Aug-07 19:30N 41°22' E 002°27'1111.3
2014-Aug-07 18:33N 41°17' E 002°14'5 0.1
2014-Aug-05 14:33N 41°20' E 002°09'7 6.8
2014-Aug-05 13:31N 41°13' E 002°08'1211.5
2014-Aug-05 12:31N 41°05' E 001°58'10 9.8
2014-Aug-05 11:32N 40°57' E 001°50'1010.4
2014-Aug-05 10:33N 40°50' E 001°41'1010.5
2014-Aug-05 09:33N 40°41' E 001°32'1010.1
2014-Aug-05 08:33N 40°35' E 001°22'1110.2
2014-Aug-05 07:31N 40°29' E 001°10'1010.4
2014-Aug-05 06:32N 40°24' E 000°59'  

Dump ship's entire track history